Main page
METAR-TAF:

METAR-TAF

Airports :

Mar de Cortés International Airport

Puerto Peñasco, Mexico

latitude: 31-21-07N, longitude: 113-18-20W, elevation: 22 m

Current weather observation

The report was made 1 hour and 17 minutes ago, at 22:40 UTC
Wind 10 kt from the South/Southeast
Temperature 22°C
Humidity 53%
Pressure 1014 hPa
Visibility: 16.1 km
Few clouds at a height of 20000 ft

METAR: MMPE 022240Z 15010KT 10SM FEW200 22/12 A2993 RMK 8/005

Time: 16:57 (23:57 UTC)


TAF: missing

Weather observations and forecasts of more than 4000 airports (METAR and TAF reports).

The available stations are represented by yellow and red dots on the map.

Hover mouse over dot to see the name of the station.

Then click to see weather observations and forecasts.

To change the map : click on the green buttons with a black cross to zoom in, on the green button with a dash to zoom out, or on the green arrows for adjacent maps.


METAR-TAF: